createdAt,value
2023-01-08T13:29:49.121Z,4.80
2023-01-08T13:35:17.034Z,4.70
2023-01-08T13:40:46.043Z,4.50
2023-01-08T13:46:09.317Z,4.70
2023-01-08T13:51:35.107Z,4.60
2023-01-08T13:56:39.144Z,5.10
2023-01-08T14:01:55.488Z,5.50
2023-01-08T14:07:15.491Z,5.20
2023-01-08T14:12:24.138Z,4.70
2023-01-08T14:17:31.917Z,5.00
2023-01-08T14:22:36.127Z,5.80
2023-01-08T14:27:39.706Z,5.90
2023-01-08T14:32:45.286Z,6.10
2023-01-08T14:37:48.295Z,5.50
2023-01-08T14:42:53.691Z,6.00
2023-01-08T14:48:12.503Z,5.30
2023-01-08T14:53:27.819Z,6.10
2023-01-08T14:58:36.477Z,6.10
2023-01-08T15:03:42.697Z,6.40
2023-01-08T15:08:45.286Z,5.80
2023-01-08T15:13:50.275Z,6.00
2023-01-08T15:19:11.502Z,6.40
2023-01-08T15:24:33.195Z,5.70
2023-01-08T15:29:40.189Z,6.80
2023-01-08T15:34:44.633Z,6.30
2023-01-08T15:39:47.229Z,6.50
2023-01-08T15:44:49.985Z,7.50
2023-01-08T15:49:54.580Z,6.20
2023-01-08T15:54:58.738Z,5.60
2023-01-08T16:00:02.436Z,7.20
2023-01-08T16:05:05.469Z,7.20
2023-01-08T16:10:13.342Z,6.70
2023-01-08T16:15:16.687Z,8.10
2023-01-08T16:20:19.324Z,8.00
2023-01-08T16:25:22.091Z,7.60
2023-01-08T16:30:24.738Z,7.30
2023-01-08T16:35:27.396Z,6.60
2023-01-08T16:40:29.998Z,6.30
2023-01-08T16:45:32.781Z,6.40
2023-01-08T16:50:35.329Z,6.00
2023-01-08T16:55:39.018Z,6.70
2023-01-08T17:00:41.755Z,7.20
2023-01-08T17:05:44.277Z,6.60
2023-01-08T17:10:47.024Z,5.80
2023-01-08T17:15:53.297Z,6.30
2023-01-08T17:20:56.236Z,5.70
2023-01-08T17:26:04.439Z,5.80
2023-01-08T17:31:10.284Z,5.40
2023-01-08T17:36:24.695Z,6.70
2023-01-08T17:41:45.989Z,6.60
2023-01-08T17:46:48.916Z,6.20
2023-01-08T17:51:53.465Z,6.60
2023-01-08T17:56:56.050Z,6.90
2023-01-08T18:01:58.911Z,6.50
2023-01-08T18:07:01.668Z,6.50
2023-01-08T18:12:04.635Z,7.40
2023-01-08T18:17:07.529Z,5.90
2023-01-08T18:22:10.179Z,6.90
2023-01-08T18:27:12.677Z,6.50
2023-01-08T18:32:15.282Z,6.90
2023-01-08T18:37:17.834Z,6.40
2023-01-08T18:42:26.479Z,6.70
2023-01-08T18:47:29.113Z,6.10
2023-01-08T18:52:32.219Z,6.20
2023-01-08T18:57:34.735Z,5.40
2023-01-08T19:02:37.420Z,6.30
2023-01-08T19:07:41.679Z,5.00
2023-01-08T19:12:44.852Z,5.70
2023-01-08T19:17:47.440Z,6.80
2023-01-08T19:22:51.673Z,7.10
2023-01-08T19:27:54.450Z,6.80
2023-01-08T19:32:57.092Z,7.00
2023-01-08T19:37:59.763Z,6.70
2023-01-08T19:43:21.168Z,6.80
2023-01-08T19:48:23.684Z,6.00
2023-01-08T19:53:26.338Z,6.00
2023-01-08T19:58:29.595Z,6.10
2023-01-08T20:03:32.395Z,6.30
2023-01-08T20:08:34.924Z,6.80
2023-01-08T20:13:38.799Z,6.40
2023-01-08T20:18:42.411Z,7.10
2023-01-08T20:23:45.535Z,7.20
2023-01-08T20:28:49.364Z,8.40
2023-01-08T20:33:52.471Z,7.10
2023-01-08T20:38:59.209Z,7.50
2023-01-08T20:44:06.723Z,8.20
2023-01-08T20:49:14.375Z,8.30
2023-01-08T20:54:17.384Z,8.60
2023-01-08T20:59:19.926Z,9.20
2023-01-08T21:04:23.415Z,8.50
2023-01-08T21:09:26.061Z,9.00
2023-01-08T21:14:28.685Z,8.80
2023-01-08T21:19:31.193Z,8.70
2023-01-08T21:24:34.332Z,9.60
2023-01-08T21:29:36.903Z,9.50
2023-01-08T21:34:39.608Z,8.40
2023-01-08T21:39:42.693Z,7.80
2023-01-08T21:45:04.221Z,8.10
2023-01-08T21:50:08.205Z,9.00
2023-01-08T21:55:10.880Z,8.20
2023-01-08T22:00:15.004Z,8.00
2023-01-08T22:05:17.699Z,9.20
2023-01-08T22:10:20.668Z,8.40
2023-01-08T22:15:23.464Z,8.00
2023-01-08T22:20:26.328Z,8.20
2023-01-08T22:25:29.251Z,9.00
2023-01-08T22:30:31.986Z,9.00
2023-01-08T22:35:37.530Z,7.40
2023-01-08T22:40:40.454Z,7.70
2023-01-08T22:45:43.291Z,7.20
2023-01-08T22:50:45.896Z,7.60
2023-01-08T22:55:48.705Z,8.40
2023-01-08T23:00:51.302Z,7.60
2023-01-08T23:06:01.624Z,8.10
2023-01-08T23:11:04.307Z,7.70
2023-01-08T23:16:09.260Z,7.80
2023-01-08T23:21:15.485Z,7.80
2023-01-08T23:26:28.577Z,7.60
2023-01-08T23:31:32.412Z,8.20
2023-01-08T23:36:36.039Z,7.00
2023-01-08T23:41:39.004Z,7.60
2023-01-08T23:46:42.105Z,7.20
2023-01-08T23:51:45.301Z,8.30
2023-01-08T23:56:48.858Z,8.40
